RYR2116 LGIR-LGTS
Flight info
| Callsign | RYR2116 |
|---|---|
| Flight time | 0h 57m |
| Altitude | 32000 |
| Route | EPALO M749 DIRMI UM749 SIGFO DCT BAMOS UL617 LEKPO |
| Aircraft | B738/M-SDE2E3FGHIRWXY/LB1 |
Departure
| Time | 2026-04-29 19:33 |
|---|---|
| Airport | Heraklion International Nikos Kazantzakis Airport (LGIR) |
Arrival
| Time | 2026-04-29 20:30 |
|---|---|
| Airport | Thessaloniki Macedonia International Airport (LGTS) |
| Time | Latitude | Longitude | Altitude | Speed | Heading |
|---|---|---|---|---|---|
| 2026-04-29 19:17 | 35.33811 | 25.17542 | 90 ft | 0 kts | 316° |
| 2026-04-29 19:28 | 35.33821 | 25.17530 | 90 ft | 5 kts | 316° |
| 2026-04-29 19:28 | 35.33853 | 25.17498 | 90 ft | 6 kts | 337° |
| 2026-04-29 19:28 | 35.33895 | 25.17505 | 90 ft | 7 kts | 24° |
| 2026-04-29 19:29 | 35.33907 | 25.17573 | 91 ft | 11 kts | 94° |
| 2026-04-29 19:29 | 35.33900 | 25.17686 | 91 ft | 15 kts | 94° |
| 2026-04-29 19:29 | 35.33891 | 25.17821 | 91 ft | 16 kts | 95° |
| 2026-04-29 19:29 | 35.33882 | 25.17953 | 94 ft | 15 kts | 95° |
| 2026-04-29 19:30 | 35.33872 | 25.18087 | 91 ft | 17 kts | 95° |
| 2026-04-29 19:30 | 35.33862 | 25.18231 | 92 ft | 17 kts | 95° |
| 2026-04-29 19:30 | 35.33852 | 25.18370 | 91 ft | 16 kts | 95° |
| 2026-04-29 19:30 | 35.33843 | 25.18504 | 92 ft | 15 kts | 95° |
| 2026-04-29 19:31 | 35.33834 | 25.18633 | 89 ft | 15 kts | 95° |
| 2026-04-29 19:31 | 35.33825 | 25.18754 | 93 ft | 14 kts | 95° |
| 2026-04-29 19:31 | 35.33817 | 25.18872 | 89 ft | 14 kts | 95° |
| 2026-04-29 19:31 | 35.33846 | 25.18976 | 88 ft | 13 kts | 58° |
| 2026-04-29 19:32 | 35.33898 | 25.19036 | 89 ft | 8 kts | 336° |
| 2026-04-29 19:32 | 35.33907 | 25.19008 | 88 ft | 0 kts | 275° |
| 2026-04-29 19:32 | 35.33909 | 25.18971 | 90 ft | 18 kts | 275° |
| 2026-04-29 19:32 | 35.33942 | 25.18497 | 92 ft | 93 kts | 275° |
| 2026-04-29 19:33 | 35.34009 | 25.17433 | 91 ft | 155 kts | 273° |
| 2026-04-29 19:33 | 35.34089 | 25.16090 | 765 ft | 153 kts | 272° |
| 2026-04-29 19:33 | 35.34386 | 25.14800 | 1404 ft | 166 kts | 305° |
| 2026-04-29 19:33 | 35.35331 | 25.14055 | 2047 ft | 173 kts | 343° |
| 2026-04-29 19:34 | 35.36599 | 25.13704 | 2377 ft | 202 kts | 348° |
| 2026-04-29 19:34 | 35.38047 | 25.13302 | 2608 ft | 225 kts | 346° |
| 2026-04-29 19:34 | 35.39607 | 25.12779 | 2966 ft | 241 kts | 345° |
| 2026-04-29 19:34 | 35.41283 | 25.12185 | 3391 ft | 256 kts | 344° |
| 2026-04-29 19:35 | 35.43009 | 25.11561 | 4186 ft | 259 kts | 344° |
| 2026-04-29 19:35 | 35.44730 | 25.10934 | 5106 ft | 259 kts | 344° |
| 2026-04-29 19:35 | 35.46469 | 25.10297 | 5917 ft | 262 kts | 344° |
| 2026-04-29 19:35 | 35.48227 | 25.09651 | 6696 ft | 266 kts | 344° |
| 2026-04-29 19:36 | 35.49990 | 25.09002 | 7443 ft | 270 kts | 343° |
| 2026-04-29 19:36 | 35.51800 | 25.08335 | 8210 ft | 273 kts | 343° |
| 2026-04-29 19:36 | 35.53622 | 25.07662 | 8980 ft | 276 kts | 343° |
| 2026-04-29 19:36 | 35.55481 | 25.06975 | 9743 ft | 280 kts | 343° |
| 2026-04-29 19:37 | 35.57355 | 25.06282 | 10409 ft | 286 kts | 343° |
| 2026-04-29 19:37 | 35.58654 | 25.05802 | 10545 ft | 302 kts | 343° |
| 2026-04-29 19:37 | 35.61474 | 25.04757 | 10772 ft | 332 kts | 343° |
| 2026-04-29 19:37 | 35.63733 | 25.03920 | 11170 ft | 344 kts | 343° |
| 2026-04-29 19:38 | 35.66014 | 25.03074 | 11781 ft | 349 kts | 343° |
| 2026-04-29 19:38 | 35.68342 | 25.02211 | 12477 ft | 352 kts | 342° |
| 2026-04-29 19:38 | 35.70702 | 25.01335 | 13175 ft | 356 kts | 342° |
| 2026-04-29 19:38 | 35.73074 | 25.00402 | 13847 ft | 361 kts | 339° |
| 2026-04-29 19:39 | 35.75442 | 24.99318 | 14478 ft | 364 kts | 338° |
| 2026-04-29 19:39 | 35.77811 | 24.98178 | 15174 ft | 367 kts | 337° |
| 2026-04-29 19:39 | 35.80202 | 24.97020 | 15868 ft | 370 kts | 338° |
| 2026-04-29 19:39 | 35.82613 | 24.95861 | 16547 ft | 374 kts | 338° |
| 2026-04-29 19:40 | 35.85050 | 24.94700 | 17201 ft | 378 kts | 338° |
| 2026-04-29 19:40 | 35.87486 | 24.93547 | 17869 ft | 381 kts | 338° |
| 2026-04-29 19:40 | 35.89970 | 24.92375 | 18496 ft | 385 kts | 338° |
| 2026-04-29 19:40 | 35.92478 | 24.91193 | 19091 ft | 388 kts | 338° |
| 2026-04-29 19:41 | 35.95012 | 24.90000 | 19695 ft | 390 kts | 338° |
| 2026-04-29 19:41 | 35.97549 | 24.88803 | 20298 ft | 392 kts | 338° |
| 2026-04-29 19:41 | 36.00108 | 24.87596 | 20867 ft | 395 kts | 338° |
| 2026-04-29 19:41 | 36.02682 | 24.86380 | 21408 ft | 398 kts | 338° |
| 2026-04-29 19:42 | 36.05277 | 24.85154 | 21952 ft | 401 kts | 338° |
| 2026-04-29 19:42 | 36.07004 | 24.84337 | 22310 ft | 403 kts | 338° |
| 2026-04-29 19:42 | 36.10484 | 24.82688 | 23013 ft | 406 kts | 337° |
| 2026-04-29 19:42 | 36.13134 | 24.81430 | 23519 ft | 409 kts | 337° |
| 2026-04-29 19:43 | 36.15800 | 24.80163 | 23969 ft | 412 kts | 337° |
| 2026-04-29 19:43 | 36.18484 | 24.78888 | 24418 ft | 414 kts | 337° |
| 2026-04-29 19:43 | 36.21173 | 24.77609 | 24875 ft | 415 kts | 337° |
| 2026-04-29 19:43 | 36.23870 | 24.76325 | 25307 ft | 416 kts | 337° |
| 2026-04-29 19:44 | 36.26582 | 24.75033 | 25734 ft | 418 kts | 337° |
| 2026-04-29 19:44 | 36.29304 | 24.73735 | 26128 ft | 420 kts | 337° |
| 2026-04-29 19:44 | 36.32008 | 24.72446 | 26516 ft | 422 kts | 337° |
| 2026-04-29 19:44 | 36.34757 | 24.71133 | 26902 ft | 424 kts | 337° |
| 2026-04-29 19:45 | 36.37516 | 24.69815 | 27287 ft | 426 kts | 337° |
| 2026-04-29 19:45 | 36.40276 | 24.68495 | 27761 ft | 425 kts | 337° |
| 2026-04-29 19:45 | 36.43033 | 24.67177 | 28356 ft | 422 kts | 337° |
| 2026-04-29 19:45 | 36.45757 | 24.65873 | 28977 ft | 418 kts | 337° |
| 2026-04-29 19:46 | 36.48457 | 24.64579 | 29515 ft | 416 kts | 337° |
| 2026-04-29 19:46 | 36.51163 | 24.63282 | 29993 ft | 416 kts | 337° |
| 2026-04-29 19:46 | 36.53856 | 24.61989 | 30441 ft | 414 kts | 337° |
| 2026-04-29 19:46 | 36.56504 | 24.60717 | 30847 ft | 413 kts | 337° |
| 2026-04-29 19:47 | 36.59181 | 24.59430 | 31227 ft | 413 kts | 336° |
| 2026-04-29 19:47 | 36.61862 | 24.58139 | 31621 ft | 412 kts | 336° |
| 2026-04-29 19:47 | 36.64533 | 24.56854 | 32020 ft | 411 kts | 336° |
| 2026-04-29 19:48 | 36.69898 | 24.54267 | 32079 ft | 413 kts | 336° |
| 2026-04-29 19:48 | 36.75227 | 24.51670 | 32076 ft | 410 kts | 334° |
| 2026-04-29 19:49 | 36.80329 | 24.48633 | 32077 ft | 409 kts | 331° |
| 2026-04-29 19:49 | 36.85404 | 24.45426 | 32077 ft | 409 kts | 331° |
| 2026-04-29 19:50 | 36.90497 | 24.42227 | 32080 ft | 410 kts | 332° |
| 2026-04-29 19:50 | 36.95604 | 24.39048 | 32081 ft | 410 kts | 332° |
| 2026-04-29 19:51 | 37.00726 | 24.35869 | 32091 ft | 416 kts | 332° |
| 2026-04-29 19:51 | 37.05957 | 24.32618 | 32085 ft | 429 kts | 332° |
| 2026-04-29 19:52 | 37.11337 | 24.29271 | 32069 ft | 432 kts | 332° |
| 2026-04-29 19:52 | 37.16724 | 24.25915 | 32071 ft | 433 kts | 332° |
| 2026-04-29 19:53 | 37.22116 | 24.22550 | 32072 ft | 432 kts | 332° |
| 2026-04-29 19:53 | 37.27461 | 24.19208 | 32073 ft | 431 kts | 332° |
| 2026-04-29 19:54 | 37.35499 | 24.14172 | 32071 ft | 430 kts | 332° |
| 2026-04-29 19:54 | 37.40847 | 24.10815 | 32074 ft | 429 kts | 332° |
| 2026-04-29 19:55 | 37.46176 | 24.07464 | 32076 ft | 428 kts | 332° |
| 2026-04-29 19:55 | 37.51467 | 24.04132 | 32075 ft | 428 kts | 332° |
| 2026-04-29 19:56 | 37.56793 | 24.00772 | 32076 ft | 428 kts | 332° |
| 2026-04-29 19:56 | 37.62117 | 23.97408 | 32078 ft | 428 kts | 331° |
| 2026-04-29 19:57 | 37.66543 | 23.94608 | 32089 ft | 428 kts | 331° |
| 2026-04-29 19:57 | 37.72772 | 23.90659 | 32090 ft | 429 kts | 331° |
| 2026-04-29 19:58 | 37.78075 | 23.87292 | 32097 ft | 430 kts | 331° |
| 2026-04-29 19:58 | 37.83412 | 23.83898 | 32098 ft | 430 kts | 331° |
| 2026-04-29 19:59 | 37.88863 | 23.80744 | 32097 ft | 433 kts | 340° |
| 2026-04-29 19:59 | 37.94821 | 23.79448 | 32114 ft | 437 kts | 352° |
| 2026-04-29 20:00 | 38.00881 | 23.78686 | 32094 ft | 438 kts | 351° |
| 2026-04-29 20:00 | 38.06900 | 23.77847 | 32074 ft | 438 kts | 351° |
| 2026-04-29 20:01 | 38.12957 | 23.76978 | 32074 ft | 438 kts | 351° |
| 2026-04-29 20:01 | 38.19017 | 23.76111 | 32076 ft | 437 kts | 351° |
| 2026-04-29 20:02 | 38.25061 | 23.75237 | 32069 ft | 437 kts | 351° |
| 2026-04-29 20:02 | 38.29069 | 23.74654 | 32078 ft | 437 kts | 351° |
| 2026-04-29 20:03 | 38.37106 | 23.73486 | 32079 ft | 437 kts | 351° |
| 2026-04-29 20:03 | 38.43142 | 23.72607 | 32070 ft | 437 kts | 351° |
| 2026-04-29 20:04 | 38.49180 | 23.71727 | 32059 ft | 436 kts | 351° |
| 2026-04-29 20:04 | 38.55213 | 23.70846 | 32064 ft | 436 kts | 351° |
| 2026-04-29 20:05 | 38.61243 | 23.69964 | 32070 ft | 436 kts | 351° |
| 2026-04-29 20:05 | 38.67241 | 23.69084 | 32065 ft | 437 kts | 351° |
| 2026-04-29 20:06 | 38.73282 | 23.68198 | 32069 ft | 437 kts | 351° |
| 2026-04-29 20:06 | 38.79330 | 23.67308 | 32053 ft | 437 kts | 351° |
| 2026-04-29 20:07 | 38.85375 | 23.66418 | 32061 ft | 437 kts | 351° |
| 2026-04-29 20:07 | 38.91413 | 23.65527 | 32063 ft | 437 kts | 350° |
| 2026-04-29 20:08 | 38.96421 | 23.64672 | 32070 ft | 436 kts | 347° |
| 2026-04-29 20:08 | 39.03324 | 23.62889 | 32074 ft | 435 kts | 345° |
| 2026-04-29 20:09 | 39.09252 | 23.61302 | 32067 ft | 435 kts | 345° |
| 2026-04-29 20:09 | 39.15154 | 23.59776 | 32068 ft | 435 kts | 346° |
| 2026-04-29 20:10 | 39.21099 | 23.58256 | 32065 ft | 435 kts | 346° |
| 2026-04-29 20:10 | 39.27035 | 23.56735 | 32071 ft | 435 kts | 346° |
| 2026-04-29 20:11 | 39.32857 | 23.54699 | 32073 ft | 431 kts | 336° |
| 2026-04-29 20:11 | 39.38415 | 23.51816 | 32068 ft | 430 kts | 336° |
| 2026-04-29 20:12 | 39.41164 | 23.50446 | 31800 ft | 428 kts | 336° |
| 2026-04-29 20:12 | 39.43932 | 23.49105 | 31598 ft | 424 kts | 336° |
| 2026-04-29 20:12 | 39.46716 | 23.47759 | 31181 ft | 428 kts | 336° |
| 2026-04-29 20:12 | 39.49506 | 23.46407 | 30753 ft | 429 kts | 336° |
| 2026-04-29 20:13 | 39.52306 | 23.45049 | 30318 ft | 429 kts | 336° |
| 2026-04-29 20:13 | 39.54158 | 23.44148 | 30010 ft | 430 kts | 336° |
| 2026-04-29 20:13 | 39.57903 | 23.42325 | 29318 ft | 430 kts | 336° |
| 2026-04-29 20:13 | 39.60687 | 23.40968 | 28780 ft | 424 kts | 336° |
| 2026-04-29 20:14 | 39.63362 | 23.39665 | 28352 ft | 409 kts | 336° |
| 2026-04-29 20:14 | 39.66003 | 23.38376 | 27502 ft | 405 kts | 336° |
| 2026-04-29 20:14 | 39.68638 | 23.37085 | 26465 ft | 406 kts | 336° |
| 2026-04-29 20:14 | 39.71291 | 23.35785 | 25392 ft | 408 kts | 336° |
| 2026-04-29 20:15 | 39.73941 | 23.34488 | 24529 ft | 405 kts | 336° |
| 2026-04-29 20:15 | 39.76558 | 23.33217 | 23797 ft | 399 kts | 336° |
| 2026-04-29 20:15 | 39.79143 | 23.31966 | 22967 ft | 393 kts | 337° |
| 2026-04-29 20:15 | 39.81693 | 23.30731 | 22105 ft | 389 kts | 337° |
| 2026-04-29 20:16 | 39.84179 | 23.29523 | 21258 ft | 385 kts | 337° |
| 2026-04-29 20:16 | 39.86675 | 23.28309 | 20435 ft | 381 kts | 337° |
| 2026-04-29 20:16 | 39.89148 | 23.27105 | 19640 ft | 377 kts | 337° |
| 2026-04-29 20:16 | 39.91590 | 23.25915 | 18880 ft | 374 kts | 337° |
| 2026-04-29 20:17 | 39.94009 | 23.24729 | 18103 ft | 370 kts | 337° |
| 2026-04-29 20:17 | 39.96408 | 23.23549 | 17275 ft | 366 kts | 337° |
| 2026-04-29 20:17 | 39.98776 | 23.22383 | 16485 ft | 362 kts | 337° |
| 2026-04-29 20:17 | 40.01124 | 23.21225 | 15712 ft | 359 kts | 337° |
| 2026-04-29 20:18 | 40.03448 | 23.20079 | 15202 ft | 355 kts | 337° |
| 2026-04-29 20:18 | 40.05754 | 23.18941 | 14753 ft | 354 kts | 337° |
| 2026-04-29 20:18 | 40.08021 | 23.17822 | 14361 ft | 353 kts | 337° |
| 2026-04-29 20:18 | 40.10311 | 23.16691 | 13960 ft | 352 kts | 337° |
| 2026-04-29 20:19 | 40.12606 | 23.15553 | 13478 ft | 353 kts | 337° |
| 2026-04-29 20:19 | 40.14792 | 23.14150 | 13018 ft | 346 kts | 324° |
| 2026-04-29 20:19 | 40.16550 | 23.12076 | 12638 ft | 337 kts | 312° |
| 2026-04-29 20:19 | 40.18146 | 23.09855 | 12249 ft | 332 kts | 313° |
| 2026-04-29 20:20 | 40.19745 | 23.07712 | 11868 ft | 327 kts | 313° |
| 2026-04-29 20:20 | 40.21338 | 23.05611 | 11499 ft | 323 kts | 314° |
| 2026-04-29 20:20 | 40.22908 | 23.03550 | 11132 ft | 318 kts | 314° |
| 2026-04-29 20:20 | 40.24430 | 23.01553 | 10759 ft | 308 kts | 314° |
| 2026-04-29 20:21 | 40.25916 | 22.99600 | 10425 ft | 298 kts | 314° |
| 2026-04-29 20:21 | 40.27341 | 22.97726 | 10281 ft | 283 kts | 314° |
| 2026-04-29 20:21 | 40.28714 | 22.95917 | 9864 ft | 279 kts | 314° |
| 2026-04-29 20:21 | 40.30080 | 22.94114 | 9336 ft | 279 kts | 314° |
| 2026-04-29 20:22 | 40.31443 | 22.92315 | 8819 ft | 278 kts | 314° |
| 2026-04-29 20:22 | 40.32807 | 22.90512 | 8340 ft | 277 kts | 313° |
| 2026-04-29 20:22 | 40.34159 | 22.88724 | 7890 ft | 276 kts | 313° |
| 2026-04-29 20:22 | 40.35511 | 22.86936 | 7458 ft | 275 kts | 313° |
| 2026-04-29 20:23 | 40.36837 | 22.85180 | 7039 ft | 274 kts | 313° |
| 2026-04-29 20:23 | 40.38171 | 22.83413 | 6637 ft | 272 kts | 313° |
| 2026-04-29 20:23 | 40.39502 | 22.81649 | 6210 ft | 271 kts | 313° |
| 2026-04-29 20:23 | 40.40832 | 22.79884 | 5765 ft | 273 kts | 313° |
| 2026-04-29 20:24 | 40.42168 | 22.78110 | 5455 ft | 273 kts | 313° |
| 2026-04-29 20:24 | 40.43494 | 22.76349 | 5161 ft | 271 kts | 313° |
| 2026-04-29 20:24 | 40.44819 | 22.74589 | 4822 ft | 271 kts | 313° |
| 2026-04-29 20:24 | 40.46149 | 22.72824 | 4501 ft | 271 kts | 314° |
| 2026-04-29 20:25 | 40.47644 | 22.71378 | 4319 ft | 266 kts | 335° |
| 2026-04-29 20:25 | 40.49397 | 22.70961 | 4291 ft | 250 kts | 4° |
| 2026-04-29 20:25 | 40.50957 | 22.71664 | 4127 ft | 235 kts | 35° |
| 2026-04-29 20:25 | 40.52090 | 22.73063 | 3962 ft | 217 kts | 52° |
| 2026-04-29 20:26 | 40.52958 | 22.74660 | 3542 ft | 213 kts | 57° |
| 2026-04-29 20:26 | 40.53817 | 22.76242 | 3024 ft | 213 kts | 56° |
| 2026-04-29 20:26 | 40.54685 | 22.77802 | 2582 ft | 207 kts | 59° |
| 2026-04-29 20:26 | 40.55137 | 22.79482 | 2349 ft | 187 kts | 92° |
| 2026-04-29 20:27 | 40.54954 | 22.81057 | 2168 ft | 166 kts | 106° |
| 2026-04-29 20:27 | 40.54866 | 22.81547 | 2120 ft | 159 kts | 107° |
| 2026-04-29 20:27 | 40.54538 | 22.83421 | 1819 ft | 157 kts | 105° |
| 2026-04-29 20:27 | 40.54214 | 22.85244 | 1524 ft | 150 kts | 107° |
| 2026-04-29 20:28 | 40.53968 | 22.86551 | 1335 ft | 145 kts | 106° |
| 2026-04-29 20:28 | 40.53725 | 22.87832 | 1150 ft | 145 kts | 106° |
| 2026-04-29 20:28 | 40.53477 | 22.89138 | 950 ft | 149 kts | 105° |
| 2026-04-29 20:28 | 40.53230 | 22.90447 | 740 ft | 147 kts | 105° |
| 2026-04-29 20:29 | 40.52982 | 22.91752 | 548 ft | 147 kts | 104° |
| 2026-04-29 20:29 | 40.52819 | 22.92619 | 414 ft | 148 kts | 103° |
| 2026-04-29 20:29 | 40.52573 | 22.93931 | 217 ft | 147 kts | 103° |
| 2026-04-29 20:29 | 40.52327 | 22.95236 | 32 ft | 147 kts | 103° |
| 2026-04-29 20:30 | 40.52109 | 22.96389 | 31 ft | 102 kts | 104° |
| 2026-04-29 20:30 | 40.51986 | 22.97037 | 28 ft | 52 kts | 104° |
| 2026-04-29 20:30 | 40.51993 | 22.97274 | 27 ft | 9 kts | 347° |
| 2026-04-29 20:30 | 40.52056 | 22.97253 | 27 ft | 9 kts | 347° |
| 2026-04-29 20:31 | 40.52098 | 22.97240 | 27 ft | 9 kts | 347° |
| 2026-04-29 20:31 | 40.52159 | 22.97221 | 27 ft | 9 kts | 347° |
| 2026-04-29 20:31 | 40.52218 | 22.97204 | 27 ft | 9 kts | 347° |
| 2026-04-29 20:31 | 40.52276 | 22.97184 | 27 ft | 10 kts | 345° |
| 2026-04-29 20:32 | 40.52363 | 22.97175 | 27 ft | 15 kts | 36° |
| 2026-04-29 20:32 | 40.52394 | 22.97274 | 27 ft | 10 kts | 75° |
| 2026-04-29 20:32 | 40.52396 | 22.97364 | 27 ft | 10 kts | 123° |
| 2026-04-29 20:32 | 40.52345 | 22.97426 | 27 ft | 10 kts | 138° |
| 2026-04-29 20:33 | 40.52297 | 22.97490 | 27 ft | 10 kts | 135° |
| 2026-04-29 20:33 | 40.52251 | 22.97551 | 28 ft | 9 kts | 133° |
| 2026-04-29 20:33 | 40.52265 | 22.97602 | 27 ft | 4 kts | 45° |
| 2026-04-29 20:33 | 40.52278 | 22.97620 | 27 ft | 2 kts | 45° |
| 2026-04-29 20:34 | 40.52283 | 22.97626 | 27 ft | 0 kts | 45° |